Terminal Aerodrome Forecast
Issued by NWS

Home | Current Version | Previous Version | Graphics & Text | Print | Product List | Glossary On
Versions: 1 2 3 4 5 6 7 8 9 10 11 12 13 14 15 16 17 18
930
FTUS43 KBIS 302225 AAD
TAFDIK
TAF AMD
KDIK 302225Z 3022/0118 31012KT 6SM -SN OVC015
     FM010600 29006KT P6SM OVC010=

USA.gov is the U.S. government's official web portal to all federal, state and local government web resources and services.